sensor_id;sensor_type;location;lat;lon;timestamp;pressure;altitude;pressure_sealevel;temperature;humidity
12178;BME280;6152;48.728;9.256;2023-07-02T00:01:43;96519.03;;;16.43;100.00
12178;BME280;6152;48.728;9.256;2023-07-02T00:04:09;96520.97;;;16.41;100.00
12178;BME280;6152;48.728;9.256;2023-07-02T00:06:36;96524.31;;;16.43;100.00
12178;BME280;6152;48.728;9.256;2023-07-02T00:09:09;96523.59;;;16.41;100.00
12178;BME280;6152;48.728;9.256;2023-07-02T00:11:38;96528.19;;;16.39;100.00
12178;BME280;6152;48.728;9.256;2023-07-02T00:14:06;96529.44;;;16.35;100.00
12178;BME280;6152;48.728;9.256;2023-07-02T00:16:32;96524.88;;;16.37;100.00
12178;BME280;6152;48.728;9.256;2023-07-02T00:18:59;96529.13;;;16.38;100.00
12178;BME280;6152;48.728;9.256;2023-07-02T00:21:26;96525.69;;;16.38;100.00
12178;BME280;6152;48.728;9.256;2023-07-02T00:23:57;96520.28;;;16.39;100.00
12178;BME280;6152;48.728;9.256;2023-07-02T00:26:27;96523.34;;;16.35;100.00
12178;BME280;6152;48.728;9.256;2023-07-02T00:28:54;96527.38;;;16.29;100.00
12178;BME280;6152;48.728;9.256;2023-07-02T00:31:21;96529.88;;;16.31;100.00
12178;BME280;6152;48.728;9.256;2023-07-02T00:33:48;96531.25;;;16.25;100.00
12178;BME280;6152;48.728;9.256;2023-07-02T00:36:14;96529.19;;;16.19;100.00
12178;BME280;6152;48.728;9.256;2023-07-02T00:38:48;96523.81;;;16.11;100.00
12178;BME280;6152;48.728;9.256;2023-07-02T00:41:14;96527.44;;;16.10;100.00
12178;BME280;6152;48.728;9.256;2023-07-02T00:43:41;96523.81;;;16.11;100.00
12178;BME280;6152;48.728;9.256;2023-07-02T00:46:20;96521.09;;;16.03;100.00
12178;BME280;6152;48.728;9.256;2023-07-02T00:48:48;96517.91;;;15.99;100.00
12178;BME280;6152;48.728;9.256;2023-07-02T00:51:16;96523.28;;;15.98;100.00
12178;BME280;6152;48.728;9.256;2023-07-02T00:53:45;96521.91;;;15.94;100.00
12178;BME280;6152;48.728;9.256;2023-07-02T00:56:12;96525.91;;;15.98;100.00
12178;BME280;6152;48.728;9.256;2023-07-02T00:58:43;96529.78;;;16.03;100.00
12178;BME280;6152;48.728;9.256;2023-07-02T01:01:21;96528.81;;;16.04;100.00
12178;BME280;6152;48.728;9.256;2023-07-02T01:03:57;96526.19;;;16.04;100.00
12178;BME280;6152;48.728;9.256;2023-07-02T01:06:29;96538.19;;;16.07;100.00
12178;BME280;6152;48.728;9.256;2023-07-02T01:09:00;96538.19;;;16.07;100.00
12178;BME280;6152;48.728;9.256;2023-07-02T01:11:35;96526.44;;;16.11;100.00
12178;BME280;6152;48.728;9.256;2023-07-02T01:14:28;96537.66;;;16.13;100.00
12178;BME280;6152;48.728;9.256;2023-07-02T01:16:58;96535.69;;;16.15;100.00
12178;BME280;6152;48.728;9.256;2023-07-02T01:19:49;96537.06;;;16.19;100.00
12178;BME280;6152;48.728;9.256;2023-07-02T01:22:20;96527.53;;;16.18;100.00
12178;BME280;6152;48.728;9.256;2023-07-02T01:24:47;96542.34;;;16.19;100.00
12178;BME280;6152;48.728;9.256;2023-07-02T01:27:14;96531.81;;;16.19;100.00
12178;BME280;6152;48.728;9.256;2023-07-02T01:29:42;96537.38;;;16.16;100.00
12178;BME280;6152;48.728;9.256;2023-07-02T01:32:10;96539.28;;;16.14;100.00
12178;BME280;6152;48.728;9.256;2023-07-02T01:34:36;96546.88;;;16.17;100.00
12178;BME280;6152;48.728;9.256;2023-07-02T01:37:06;96543.28;;;16.18;100.00
12178;BME280;6152;48.728;9.256;2023-07-02T01:39:33;96537.47;;;16.24;100.00
12178;BME280;6152;48.728;9.256;2023-07-02T01:42:10;96524.91;;;16.18;100.00
12178;BME280;6152;48.728;9.256;2023-07-02T01:44:37;96522.69;;;16.13;100.00
12178;BME280;6152;48.728;9.256;2023-07-02T01:47:04;96513.56;;;16.17;100.00
12178;BME280;6152;48.728;9.256;2023-07-02T01:49:31;96510.03;;;16.09;100.00
12178;BME280;6152;48.728;9.256;2023-07-02T01:51:57;96519.13;;;16.05;100.00
12178;BME280;6152;48.728;9.256;2023-07-02T01:54:26;96517.47;;;16.04;100.00
12178;BME280;6152;48.728;9.256;2023-07-02T01:56:53;96528.53;;;15.98;100.00
12178;BME280;6152;48.728;9.256;2023-07-02T01:59:20;96538.38;;;15.96;100.00
12178;BME280;6152;48.728;9.256;2023-07-02T02:01:46;96550.09;;;15.92;100.00
12178;BME280;6152;48.728;9.256;2023-07-02T02:04:12;96547.31;;;15.93;100.00
12178;BME280;6152;48.728;9.256;2023-07-02T02:06:40;96547.31;;;15.93;100.00
12178;BME280;6152;48.728;9.256;2023-07-02T02:09:06;96557.28;;;15.90;100.00
12178;BME280;6152;48.728;9.256;2023-07-02T02:11:34;96558.66;;;15.94;100.00
12178;BME280;6152;48.728;9.256;2023-07-02T02:14:00;96550.38;;;15.89;100.00
12178;BME280;6152;48.728;9.256;2023-07-02T02:16:29;96554.53;;;15.91;100.00
12178;BME280;6152;48.728;9.256;2023-07-02T02:18:56;96556.19;;;15.92;100.00
12178;BME280;6152;48.728;9.256;2023-07-02T02:21:22;96551.50;;;15.96;100.00
12178;BME280;6152;48.728;9.256;2023-07-02T02:23:49;96550.50;;;15.97;100.00
12178;BME280;6152;48.728;9.256;2023-07-02T02:26:15;96548.59;;;15.99;100.00
12178;BME280;6152;48.728;9.256;2023-07-02T02:28:42;96547.59;;;16.00;100.00
12178;BME280;6152;48.728;9.256;2023-07-02T02:31:08;96538.47;;;16.04;100.00
12178;BME280;6152;48.728;9.256;2023-07-02T02:33:35;96540.25;;;16.03;100.00
12178;BME280;6152;48.728;9.256;2023-07-02T02:36:02;96536.56;;;16.06;100.00
12178;BME280;6152;48.728;9.256;2023-07-02T02:38:28;96536.56;;;16.06;100.00
12178;BME280;6152;48.728;9.256;2023-07-02T02:40:54;96533.78;;;16.07;100.00
12178;BME280;6152;48.728;9.256;2023-07-02T02:43:20;96541.53;;;16.09;100.00
12178;BME280;6152;48.728;9.256;2023-07-02T02:45:48;96542.06;;;16.12;100.00
12178;BME280;6152;48.728;9.256;2023-07-02T02:48:14;96536.81;;;16.12;100.00
12178;BME280;6152;48.728;9.256;2023-07-02T02:50:40;96540.94;;;16.15;100.00
12178;BME280;6152;48.728;9.256;2023-07-02T02:53:09;96532.13;;;16.16;100.00
12178;BME280;6152;48.728;9.256;2023-07-02T02:55:38;96540.66;;;16.18;100.00
12178;BME280;6152;48.728;9.256;2023-07-02T02:58:04;96539.00;;;16.17;100.00
12178;BME280;6152;48.728;9.256;2023-07-02T03:00:30;96538.03;;;16.18;100.00
12178;BME280;6152;48.728;9.256;2023-07-02T03:02:57;96549.25;;;16.20;100.00
12178;BME280;6152;48.728;9.256;2023-07-02T03:05:23;96546.47;;;16.22;100.00
12178;BME280;6152;48.728;9.256;2023-07-02T03:07:50;96545.75;;;16.29;100.00
12178;BME280;6152;48.728;9.256;2023-07-02T03:10:17;96550.34;;;16.27;100.00
12178;BME280;6152;48.728;9.256;2023-07-02T03:12:43;96548.09;;;16.32;100.00
12178;BME280;6152;48.728;9.256;2023-07-02T03:15:10;96561.78;;;16.36;100.00
12178;BME280;6152;48.728;9.256;2023-07-02T03:17:36;96563.84;;;16.32;100.00
12178;BME280;6152;48.728;9.256;2023-07-02T03:20:03;96568.81;;;16.35;100.00
12178;BME280;6152;48.728;9.256;2023-07-02T03:22:35;96566.19;;;16.35;100.00
12178;BME280;6152;48.728;9.256;2023-07-02T03:25:01;96568.25;;;16.41;100.00
12178;BME280;6152;48.728;9.256;2023-07-02T03:27:27;96574.88;;;16.45;100.00
12178;BME280;6152;48.728;9.256;2023-07-02T03:29:53;96581.00;;;16.36;100.00
12178;BME280;6152;48.728;9.256;2023-07-02T03:32:20;96584.03;;;16.32;100.00
12178;BME280;6152;48.728;9.256;2023-07-02T03:34:46;96588.63;;;16.20;100.00
12178;BME280;6152;48.728;9.256;2023-07-02T03:37:12;96589.06;;;16.06;100.00
12178;BME280;6152;48.728;9.256;2023-07-02T03:39:38;96596.91;;;15.87;100.00
12178;BME280;6152;48.728;9.256;2023-07-02T03:42:05;96595.97;;;15.78;100.00
12178;BME280;6152;48.728;9.256;2023-07-02T03:44:32;96596.66;;;15.71;100.00
12178;BME280;6152;48.728;9.256;2023-07-02T03:46:58;96596.09;;;15.57;100.00
12178;BME280;6152;48.728;9.256;2023-07-02T03:49:24;96602.97;;;15.49;100.00
12178;BME280;6152;48.728;9.256;2023-07-02T03:51:50;96599.75;;;15.45;100.00
12178;BME280;6152;48.728;9.256;2023-07-02T03:54:16;96602.47;;;15.34;100.00
12178;BME280;6152;48.728;9.256;2023-07-02T03:56:43;96606.19;;;15.22;100.00
12178;BME280;6152;48.728;9.256;2023-07-02T03:59:09;96610.41;;;15.13;100.00
12178;BME280;6152;48.728;9.256;2023-07-02T04:01:36;96601.84;;;15.02;100.00
12178;BME280;6152;48.728;9.256;2023-07-02T04:04:02;96610.94;;;14.98;100.00
12178;BME280;6152;48.728;9.256;2023-07-02T04:06:28;96614.75;;;14.94;100.00
12178;BME280;6152;48.728;9.256;2023-07-02T04:08:54;96624.13;;;14.87;100.00
12178;BME280;6152;48.728;9.256;2023-07-02T04:11:20;96627.00;;;14.84;100.00
12178;BME280;6152;48.728;9.256;2023-07-02T04:13:46;96626.72;;;14.87;100.00
12178;BME280;6152;48.728;9.256;2023-07-02T04:16:12;96632.38;;;14.82;100.00
12178;BME280;6152;48.728;9.256;2023-07-02T04:18:38;96632.69;;;14.89;100.00
12178;BME280;6152;48.728;9.256;2023-07-02T04:21:04;96637.84;;;14.79;100.00
12178;BME280;6152;48.728;9.256;2023-07-02T04:23:30;96640.63;;;14.78;100.00
12178;BME280;6152;48.728;9.256;2023-07-02T04:25:56;96636.19;;;14.69;100.00
12178;BME280;6152;48.728;9.256;2023-07-02T04:28:23;96638.66;;;14.70;100.00
12178;BME280;6152;48.728;9.256;2023-07-02T04:30:49;96640.16;;;14.73;100.00
12178;BME280;6152;48.728;9.256;2023-07-02T04:33:17;96640.88;;;14.75;100.00
12178;BME280;6152;48.728;9.256;2023-07-02T04:35:43;96634.56;;;14.77;100.00
12178;BME280;6152;48.728;9.256;2023-07-02T04:38:09;96648.03;;;14.73;100.00
12178;BME280;6152;48.728;9.256;2023-07-02T04:40:36;96648.50;;;14.78;100.00
12178;BME280;6152;48.728;9.256;2023-07-02T04:43:02;96659.38;;;14.83;100.00
12178;BME280;6152;48.728;9.256;2023-07-02T04:45:28;96651.28;;;14.86;100.00
12178;BME280;6152;48.728;9.256;2023-07-02T04:47:58;96655.28;;;14.90;100.00
12178;BME280;6152;48.728;9.256;2023-07-02T04:50:26;96655.56;;;14.87;100.00
12178;BME280;6152;48.728;9.256;2023-07-02T04:52:53;96649.94;;;14.91;100.00
12178;BME280;6152;48.728;9.256;2023-07-02T04:55:19;96648.44;;;14.98;100.00
12178;BME280;6152;48.728;9.256;2023-07-02T04:57:45;96655.66;;;15.06;100.00
12178;BME280;6152;48.728;9.256;2023-07-02T05:00:11;96657.19;;;15.08;100.00
12178;BME280;6152;48.728;9.256;2023-07-02T05:02:38;96654.84;;;15.15;100.00
12178;BME280;6152;48.728;9.256;2023-07-02T05:05:05;96667.13;;;15.14;100.00
12178;BME280;6152;48.728;9.256;2023-07-02T05:07:31;96661.50;;;15.19;100.00
12178;BME280;6152;48.728;9.256;2023-07-02T05:09:57;96657.47;;;15.15;100.00
12178;BME280;6152;48.728;9.256;2023-07-02T05:12:24;96666.72;;;15.09;100.00
12178;BME280;6152;48.728;9.256;2023-07-02T05:14:50;96668.91;;;15.14;100.00
12178;BME280;6152;48.728;9.256;2023-07-02T05:17:16;96672.66;;;15.21;100.00
12178;BME280;6152;48.728;9.256;2023-07-02T05:19:43;96684.28;;;15.28;100.00
12178;BME280;6152;48.728;9.256;2023-07-02T05:22:09;96694.97;;;15.36;100.00
12178;BME280;6152;48.728;9.256;2023-07-02T05:24:36;96693.75;;;15.40;100.00
12178;BME280;6152;48.728;9.256;2023-07-02T05:27:02;96695.59;;;15.49;100.00
12178;BME280;6152;48.728;9.256;2023-07-02T05:29:29;96713.63;;;15.43;100.00
12178;BME280;6152;48.728;9.256;2023-07-02T05:31:55;96703.00;;;15.44;100.00
12178;BME280;6152;48.728;9.256;2023-07-02T05:34:21;96692.28;;;15.57;100.00
12178;BME280;6152;48.728;9.256;2023-07-02T05:36:47;96694.00;;;15.68;100.00
12178;BME280;6152;48.728;9.256;2023-07-02T05:39:13;96699.53;;;15.74;100.00
12178;BME280;6152;48.728;9.256;2023-07-02T05:41:40;96701.03;;;15.77;100.00
12178;BME280;6152;48.728;9.256;2023-07-02T05:44:06;96711.41;;;15.69;100.00
12178;BME280;6152;48.728;9.256;2023-07-02T05:46:32;96709.75;;;15.77;100.00
12178;BME280;6152;48.728;9.256;2023-07-02T05:48:58;96711.13;;;15.81;100.00
12178;BME280;6152;48.728;9.256;2023-07-02T05:51:25;96713.63;;;15.83;100.00
12178;BME280;6152;48.728;9.256;2023-07-02T05:53:52;96708.25;;;15.84;100.00
12178;BME280;6152;48.728;9.256;2023-07-02T05:56:19;96712.00;;;15.91;100.00
12178;BME280;6152;48.728;9.256;2023-07-02T05:58:46;96709.47;;;15.90;100.00
12178;BME280;6152;48.728;9.256;2023-07-02T06:01:12;96712.28;;;15.98;100.00
12178;BME280;6152;48.728;9.256;2023-07-02T06:03:38;96718.63;;;16.05;100.00
12178;BME280;6152;48.728;9.256;2023-07-02T06:06:05;96709.81;;;16.15;100.00
12178;BME280;6152;48.728;9.256;2023-07-02T06:08:31;96712.56;;;16.14;100.00
12178;BME280;6152;48.728;9.256;2023-07-02T06:10:57;96710.22;;;16.21;100.00
12178;BME280;6152;48.728;9.256;2023-07-02T06:13:23;96714.22;;;16.34;100.00
12178;BME280;6152;48.728;9.256;2023-07-02T06:15:49;96715.34;;;16.41;100.00
12178;BME280;6152;48.728;9.256;2023-07-02T06:18:15;96718.53;;;16.54;100.00
12178;BME280;6152;48.728;9.256;2023-07-02T06:20:43;96716.31;;;16.79;100.00
12178;BME280;6152;48.728;9.256;2023-07-02T06:23:09;96718.03;;;17.16;100.00
12178;BME280;6152;48.728;9.256;2023-07-02T06:25:35;96719.03;;;17.43;100.00
12178;BME280;6152;48.728;9.256;2023-07-02T06:28:01;96724.69;;;17.57;100.00
12178;BME280;6152;48.728;9.256;2023-07-02T06:30:28;96720.06;;;17.69;100.00
12178;BME280;6152;48.728;9.256;2023-07-02T06:32:54;96723.91;;;18.02;100.00
12178;BME280;6152;48.728;9.256;2023-07-02T06:35:21;96724.88;;;18.01;100.00
12178;BME280;6152;48.728;9.256;2023-07-02T06:37:47;96728.97;;;18.13;100.00
12178;BME280;6152;48.728;9.256;2023-07-02T06:40:13;96729.56;;;18.42;100.00
12178;BME280;6152;48.728;9.256;2023-07-02T06:42:40;96726.97;;;18.60;100.00
12178;BME280;6152;48.728;9.256;2023-07-02T06:45:07;96725.47;;;18.57;100.00
12178;BME280;6152;48.728;9.256;2023-07-02T06:47:33;96735.00;;;18.58;100.00
12178;BME280;6152;48.728;9.256;2023-07-02T06:49:59;96730.44;;;18.60;100.00
12178;BME280;6152;48.728;9.256;2023-07-02T06:52:26;96731.91;;;18.81;100.00
12178;BME280;6152;48.728;9.256;2023-07-02T06:54:52;96732.34;;;18.94;100.00
12178;BME280;6152;48.728;9.256;2023-07-02T06:57:18;96733.94;;;18.87;100.00
12178;BME280;6152;48.728;9.256;2023-07-02T06:59:44;96736.66;;;18.95;100.00
12178;BME280;6152;48.728;9.256;2023-07-02T07:02:10;96743.66;;;18.86;100.00
12178;BME280;6152;48.728;9.256;2023-07-02T07:04:36;96746.88;;;18.98;100.00
12178;BME280;6152;48.728;9.256;2023-07-02T07:07:03;96748.47;;;18.91;100.00
12178;BME280;6152;48.728;9.256;2023-07-02T07:09:30;96741.09;;;18.94;100.00
12178;BME280;6152;48.728;9.256;2023-07-02T07:11:56;96744.31;;;19.06;100.00
12178;BME280;6152;48.728;9.256;2023-07-02T07:14:23;96751.59;;;19.12;100.00
12178;BME280;6152;48.728;9.256;2023-07-02T07:16:49;96745.66;;;19.36;100.00
12178;BME280;6152;48.728;9.256;2023-07-02T07:19:16;96742.94;;;19.45;100.00
12178;BME280;6152;48.728;9.256;2023-07-02T07:21:42;96749.34;;;19.69;100.00
12178;BME280;6152;48.728;9.256;2023-07-02T07:24:09;96745.41;;;19.81;100.00
12178;BME280;6152;48.728;9.256;2023-07-02T07:26:35;96750.38;;;19.84;100.00
12178;BME280;6152;48.728;9.256;2023-07-02T07:29:01;96748.44;;;19.86;100.00
12178;BME280;6152;48.728;9.256;2023-07-02T07:31:29;96749.16;;;19.70;100.00
12178;BME280;6152;48.728;9.256;2023-07-02T07:33:55;96741.41;;;19.69;100.00
12178;BME280;6152;48.728;9.256;2023-07-02T07:36:21;96750.59;;;19.56;100.00
12178;BME280;6152;48.728;9.256;2023-07-02T07:38:47;96752.38;;;19.56;100.00
12178;BME280;6152;48.728;9.256;2023-07-02T07:41:13;96752.91;;;19.59;100.00
12178;BME280;6152;48.728;9.256;2023-07-02T07:43:39;96751.16;;;19.68;100.00
12178;BME280;6152;48.728;9.256;2023-07-02T07:46:06;96749.94;;;19.54;100.00
12178;BME280;6152;48.728;9.256;2023-07-02T07:48:32;96755.41;;;19.61;100.00
12178;BME280;6152;48.728;9.256;2023-07-02T07:50:58;96759.47;;;19.89;100.00
12178;BME280;6152;48.728;9.256;2023-07-02T07:53:25;96753.06;;;19.92;97.23
12178;BME280;6152;48.728;9.256;2023-07-02T07:55:51;96753.22;;;20.40;97.39
12178;BME280;6152;48.728;9.256;2023-07-02T07:58:17;96748.28;;;20.53;93.29
12178;BME280;6152;48.728;9.256;2023-07-02T08:00:43;96752.44;;;20.48;91.67
12178;BME280;6152;48.728;9.256;2023-07-02T08:03:10;96750.59;;;20.73;93.50
12178;BME280;6152;48.728;9.256;2023-07-02T08:05:36;96758.56;;;21.37;86.21
12178;BME280;6152;48.728;9.256;2023-07-02T08:08:03;96744.94;;;21.48;83.52
12178;BME280;6152;48.728;9.256;2023-07-02T08:10:29;96737.63;;;21.58;82.18
12178;BME280;6152;48.728;9.256;2023-07-02T08:12:55;96741.34;;;21.88;79.37
12178;BME280;6152;48.728;9.256;2023-07-02T08:15:22;96738.06;;;22.25;75.94
12178;BME280;6152;48.728;9.256;2023-07-02T08:17:49;96746.75;;;22.11;73.26
12178;BME280;6152;48.728;9.256;2023-07-02T08:20:15;96751.63;;;21.83;74.23
12178;BME280;6152;48.728;9.256;2023-07-02T08:22:43;96753.44;;;21.99;75.84
12178;BME280;6152;48.728;9.256;2023-07-02T08:25:09;96743.44;;;22.09;73.30
12178;BME280;6152;48.728;9.256;2023-07-02T08:27:35;96741.09;;;22.14;70.34
12178;BME280;6152;48.728;9.256;2023-07-02T08:30:01;96746.13;;;22.01;72.96
12178;BME280;6152;48.728;9.256;2023-07-02T08:32:27;96747.59;;;22.34;70.90
12178;BME280;6152;48.728;9.256;2023-07-02T08:34:53;96754.94;;;22.55;69.05
12178;BME280;6152;48.728;9.256;2023-07-02T08:37:21;96755.25;;;22.29;63.29
12178;BME280;6152;48.728;9.256;2023-07-02T08:39:48;96746.75;;;22.11;64.00
12178;BME280;6152;48.728;9.256;2023-07-02T08:42:14;96749.84;;;22.45;64.95
12178;BME280;6152;48.728;9.256;2023-07-02T08:44:42;96754.25;;;22.84;62.52
12178;BME280;6152;48.728;9.256;2023-07-02T08:47:08;96752.94;;;23.40;59.76
12178;BME280;6152;48.728;9.256;2023-07-02T08:49:35;96748.31;;;24.15;54.39
12178;BME280;6152;48.728;9.256;2023-07-02T08:52:01;96745.91;;;24.92;53.59
12178;BME280;6152;48.728;9.256;2023-07-02T08:54:28;96748.41;;;24.79;53.07
12178;BME280;6152;48.728;9.256;2023-07-02T08:56:54;96748.75;;;24.33;51.66
12178;BME280;6152;48.728;9.256;2023-07-02T08:59:20;96752.72;;;24.23;50.88
12178;BME280;6152;48.728;9.256;2023-07-02T09:01:50;96751.72;;;23.50;52.09
12178;BME280;6152;48.728;9.256;2023-07-02T09:04:24;96749.75;;;23.07;55.08
12178;BME280;6152;48.728;9.256;2023-07-02T09:07:10;96749.84;;;22.99;56.51
12178;BME280;6152;48.728;9.256;2023-07-02T09:09:47;96746.00;;;23.83;54.00
12178;BME280;6152;48.728;9.256;2023-07-02T09:12:30;96751.38;;;25.60;47.03
12178;BME280;6152;48.728;9.256;2023-07-02T09:15:05;96741.72;;;26.41;45.07
12178;BME280;6152;48.728;9.256;2023-07-02T09:17:34;96748.03;;;27.27;40.46
12178;BME280;6152;48.728;9.256;2023-07-02T09:20:04;96740.75;;;28.00;38.87
12178;BME280;6152;48.728;9.256;2023-07-02T09:22:41;96734.47;;;28.32;38.31
12178;BME280;6152;48.728;9.256;2023-07-02T09:25:07;96733.75;;;28.56;37.50
12178;BME280;6152;48.728;9.256;2023-07-02T09:27:35;96734.00;;;29.42;35.21
12178;BME280;6152;48.728;9.256;2023-07-02T09:30:13;96725.16;;;30.03;34.50
12178;BME280;6152;48.728;9.256;2023-07-02T09:32:40;96738.59;;;30.81;33.80
12178;BME280;6152;48.728;9.256;2023-07-02T09:35:06;96726.94;;;31.40;32.86
12178;BME280;6152;48.728;9.256;2023-07-02T09:37:33;96731.59;;;31.21;31.60
12178;BME280;6152;48.728;9.256;2023-07-02T09:39:59;96729.06;;;30.19;32.99
12178;BME280;6152;48.728;9.256;2023-07-02T09:42:28;96731.66;;;29.21;33.88
12178;BME280;6152;48.728;9.256;2023-07-02T09:45:02;96730.88;;;29.45;34.98
12178;BME280;6152;48.728;9.256;2023-07-02T09:47:29;96720.53;;;28.93;34.47
12178;BME280;6152;48.728;9.256;2023-07-02T09:50:03;96730.06;;;29.14;35.98
12178;BME280;6152;48.728;9.256;2023-07-02T09:52:34;96717.31;;;28.46;35.29
12178;BME280;6152;48.728;9.256;2023-07-02T09:55:01;96717.47;;;28.89;35.29
12178;BME280;6152;48.728;9.256;2023-07-02T09:57:27;96712.06;;;29.70;34.42
12178;BME280;6152;48.728;9.256;2023-07-02T09:59:59;96701.09;;;28.73;35.65
12178;BME280;6152;48.728;9.256;2023-07-02T10:02:25;96714.34;;;27.39;37.51
12178;BME280;6152;48.728;9.256;2023-07-02T10:04:51;96699.53;;;27.43;38.16
12178;BME280;6152;48.728;9.256;2023-07-02T10:07:28;96707.50;;;26.65;39.68
12178;BME280;6152;48.728;9.256;2023-07-02T10:09:55;96707.56;;;26.17;40.48
12178;BME280;6152;48.728;9.256;2023-07-02T10:12:23;96711.75;;;25.51;41.49
12178;BME280;6152;48.728;9.256;2023-07-02T10:14:51;96711.25;;;25.13;43.16
12178;BME280;6152;48.728;9.256;2023-07-02T10:19:52;96706.19;;;24.54;45.47
12178;BME280;6152;48.728;9.256;2023-07-02T10:22:19;96720.00;;;24.64;45.69
12178;BME280;6152;48.728;9.256;2023-07-02T10:25:11;96713.22;;;25.04;43.77
12178;BME280;6152;48.728;9.256;2023-07-02T10:27:42;96711.53;;;25.25;42.45
12178;BME280;6152;48.728;9.256;2023-07-02T10:30:09;96713.31;;;25.45;41.01
12178;BME280;6152;48.728;9.256;2023-07-02T10:32:37;96715.94;;;26.61;37.50
12178;BME280;6152;48.728;9.256;2023-07-02T10:35:24;96703.53;;;27.92;35.44
12178;BME280;6152;48.728;9.256;2023-07-02T10:37:51;96710.94;;;29.78;32.47
12178;BME280;6152;48.728;9.256;2023-07-02T10:40:17;96703.41;;;30.71;31.12
12178;BME280;6152;48.728;9.256;2023-07-02T10:42:51;96697.56;;;32.08;28.63
12178;BME280;6152;48.728;9.256;2023-07-02T10:45:18;96694.00;;;32.19;28.31
12178;BME280;6152;48.728;9.256;2023-07-02T10:47:45;96700.19;;;32.60;28.26
12178;BME280;6152;48.728;9.256;2023-07-02T10:50:19;96699.72;;;30.35;29.88
12178;BME280;6152;48.728;9.256;2023-07-02T10:52:46;96705.16;;;31.18;30.65
12178;BME280;6152;48.728;9.256;2023-07-02T10:55:20;96698.97;;;31.29;29.60
12178;BME280;6152;48.728;9.256;2023-07-02T10:57:47;96697.38;;;31.75;29.74
12178;BME280;6152;48.728;9.256;2023-07-02T11:00:14;96699.22;;;31.63;28.84
12178;BME280;6152;48.728;9.256;2023-07-02T11:02:40;96712.88;;;31.15;29.39
12178;BME280;6152;48.728;9.256;2023-07-02T11:05:08;96711.97;;;30.49;29.42
12178;BME280;6152;48.728;9.256;2023-07-02T11:07:38;96702.56;;;29.49;31.34
12178;BME280;6152;48.728;9.256;2023-07-02T11:10:06;96701.13;;;30.38;30.89
12178;BME280;6152;48.728;9.256;2023-07-02T11:12:32;96708.03;;;31.58;30.01
12178;BME280;6152;48.728;9.256;2023-07-02T11:15:09;96707.75;;;31.83;28.59
12178;BME280;6152;48.728;9.256;2023-07-02T11:17:36;96705.41;;;31.17;29.26
12178;BME280;6152;48.728;9.256;2023-07-02T11:20:02;96708.91;;;31.87;28.70
12178;BME280;6152;48.728;9.256;2023-07-02T11:22:35;96713.94;;;31.95;27.01
12178;BME280;6152;48.728;9.256;2023-07-02T11:25:18;96700.72;;;31.24;27.84
12178;BME280;6152;48.728;9.256;2023-07-02T11:27:46;96701.91;;;30.75;28.73
12178;BME280;6152;48.728;9.256;2023-07-02T11:30:13;96691.84;;;30.22;29.58
12178;BME280;6152;48.728;9.256;2023-07-02T11:32:52;96698.63;;;29.27;31.06
12178;BME280;6152;48.728;9.256;2023-07-02T11:35:19;96690.84;;;30.53;30.19
12178;BME280;6152;48.728;9.256;2023-07-02T11:37:46;96683.22;;;31.68;28.83
12178;BME280;6152;48.728;9.256;2023-07-02T11:40:16;96700.16;;;31.80;27.51
12178;BME280;6152;48.728;9.256;2023-07-02T11:42:43;96693.50;;;31.47;27.42
12178;BME280;6152;48.728;9.256;2023-07-02T11:45:10;96686.72;;;30.80;27.36
12178;BME280;6152;48.728;9.256;2023-07-02T11:47:37;96690.66;;;30.18;28.91
12178;BME280;6152;48.728;9.256;2023-07-02T11:50:05;96694.31;;;29.01;30.00
12178;BME280;6152;48.728;9.256;2023-07-02T11:52:31;96688.66;;;28.85;31.10
12178;BME280;6152;48.728;9.256;2023-07-02T11:54:57;96684.63;;;29.50;30.07
12178;BME280;6152;48.728;9.256;2023-07-02T11:57:23;96677.47;;;29.44;29.46
12178;BME280;6152;48.728;9.256;2023-07-02T11:59:50;96677.13;;;30.13;29.83
12178;BME280;6152;48.728;9.256;2023-07-02T12:02:18;96675.28;;;28.85;29.99
12178;BME280;6152;48.728;9.256;2023-07-02T12:04:45;96674.56;;;28.96;30.58
12178;BME280;6152;48.728;9.256;2023-07-02T12:07:11;96670.69;;;29.59;29.56
12178;BME280;6152;48.728;9.256;2023-07-02T12:09:39;96673.63;;;29.94;29.15
12178;BME280;6152;48.728;9.256;2023-07-02T12:12:05;96674.63;;;31.01;28.48
12178;BME280;6152;48.728;9.256;2023-07-02T12:14:31;96672.44;;;31.10;27.40
12178;BME280;6152;48.728;9.256;2023-07-02T12:16:58;96670.84;;;30.19;28.56
12178;BME280;6152;48.728;9.256;2023-07-02T12:19:24;96681.28;;;29.05;28.59
12178;BME280;6152;48.728;9.256;2023-07-02T12:21:50;96674.00;;;28.56;29.36
12178;BME280;6152;48.728;9.256;2023-07-02T12:24:16;96672.13;;;27.68;31.07
12178;BME280;6152;48.728;9.256;2023-07-02T12:26:42;96672.78;;;27.43;32.25
12178;BME280;6152;48.728;9.256;2023-07-02T12:29:09;96675.25;;;27.38;33.08
12178;BME280;6152;48.728;9.256;2023-07-02T12:31:35;96684.13;;;27.13;33.46
12178;BME280;6152;48.728;9.256;2023-07-02T12:34:02;96664.97;;;26.56;34.31
12178;BME280;6152;48.728;9.256;2023-07-02T12:36:29;96670.59;;;26.14;34.77
12178;BME280;6152;48.728;9.256;2023-07-02T12:38:55;96667.06;;;26.00;35.76
12178;BME280;6152;48.728;9.256;2023-07-02T12:41:21;96672.00;;;25.56;35.03
12178;BME280;6152;48.728;9.256;2023-07-02T12:43:47;96667.34;;;25.65;35.49
12178;BME280;6152;48.728;9.256;2023-07-02T12:46:13;96670.78;;;25.58;35.03
12178;BME280;6152;48.728;9.256;2023-07-02T12:48:39;96656.34;;;25.46;35.17
12178;BME280;6152;48.728;9.256;2023-07-02T12:51:05;96662.50;;;25.47;34.96
12178;BME280;6152;48.728;9.256;2023-07-02T12:53:31;96670.00;;;25.65;35.28
12178;BME280;6152;48.728;9.256;2023-07-02T12:55:58;96663.88;;;25.71;33.92
12178;BME280;6152;48.728;9.256;2023-07-02T12:58:24;96657.75;;;25.77;35.13
12178;BME280;6152;48.728;9.256;2023-07-02T13:00:50;96665.91;;;25.69;34.29
12178;BME280;6152;48.728;9.256;2023-07-02T13:03:17;96667.69;;;25.27;33.81
12178;BME280;6152;48.728;9.256;2023-07-02T13:05:44;96660.50;;;25.28;34.64
12178;BME280;6152;48.728;9.256;2023-07-02T13:08:10;96659.03;;;25.19;35.02
12178;BME280;6152;48.728;9.256;2023-07-02T13:10:37;96660.06;;;25.52;35.73